Elmer, Pennsylvania
Current Conditions -  °F | °C
As of 12:35 AM on Sunday 26 Oct 2014 (Local Time) from KN38 Reporting Station
Few Clouds Few Clouds  
Wind Chill: 54°   Ceiling: Unl
Heat Index: 54°   Visibility: 10mi
Dew Point: 43°   Wind: 10mph
Humidity: 67%   Direction: 290°WNW
Pressure: 29.64"   Gusts: 22mph
Location:  41.9252°N, 77.5198°W
Report Text: KN38 260435Z AUTO 29009G19KT 10SM FEW036 12/06 A2964 RMK AO2
Loading
Personal Weather Stations






























Interactive Weather Map
Tropical Storm Tracking
New forecast layout! Learn more

10-Day Weather Forecast

Advertisements
Track Severe Weather on mobile